createdAt,value
2022-11-14T00:01:31.081Z,95474.59
2022-11-14T00:04:16.630Z,95470.59
2022-11-14T00:07:02.428Z,95471.94
2022-11-14T00:09:47.857Z,95466.84
2022-11-14T00:12:33.380Z,95453.16
2022-11-14T00:15:19.651Z,95464.44
2022-11-14T00:18:05.068Z,95466.88
2022-11-14T00:20:52.124Z,95473.06
2022-11-14T00:23:38.138Z,95490.50
2022-11-14T00:26:23.866Z,95485.69
2022-11-14T00:29:11.930Z,95490.53
2022-11-14T00:31:57.998Z,95492.94
2022-11-14T00:34:43.968Z,95496.44
2022-11-14T00:37:30.012Z,95479.00
2022-11-14T00:40:16.104Z,95479.53
2022-11-14T00:43:01.790Z,95481.16
2022-11-14T00:45:48.139Z,95480.34
2022-11-14T00:48:33.715Z,95469.63
2022-11-14T00:51:19.776Z,95469.38
2022-11-14T00:54:05.458Z,95476.34
2022-11-14T00:56:50.970Z,95487.06
2022-11-14T00:59:36.912Z,95472.56
2022-11-14T01:02:23.527Z,95482.25
2022-11-14T01:05:09.038Z,95490.81
2022-11-14T01:07:55.142Z,95486.00
2022-11-14T01:10:46.303Z,95479.53
2022-11-14T01:13:32.193Z,95465.59
2022-11-14T01:16:17.734Z,95460.78
2022-11-14T01:19:04.412Z,95456.72
2022-11-14T01:21:50.159Z,95453.78
2022-11-14T01:24:36.234Z,95464.00
2022-11-14T01:27:21.687Z,95456.75
2022-11-14T01:30:08.080Z,95456.22
2022-11-14T01:32:53.494Z,95458.59
2022-11-14T01:35:38.928Z,95458.88
2022-11-14T01:38:24.855Z,95454.84
2022-11-14T01:41:14.116Z,95449.19
2022-11-14T01:44:00.172Z,95434.22
2022-11-14T01:46:51.710Z,95435.53
2022-11-14T01:49:45.550Z,95433.94
2022-11-14T01:52:35.898Z,95436.88
2022-11-14T01:55:21.959Z,95454.81
2022-11-14T01:58:07.870Z,95475.47
2022-11-14T02:00:53.731Z,95472.78
2022-11-14T02:03:42.552Z,95455.91
2022-11-14T02:06:30.776Z,95465.56
2022-11-14T02:09:16.285Z,95448.41
2022-11-14T02:12:04.669Z,95452.19
2022-11-14T02:14:54.891Z,95444.66
2022-11-14T02:17:42.961Z,95440.09
2022-11-14T02:20:33.290Z,95421.06
2022-11-14T02:23:27.802Z,95422.94
2022-11-14T02:26:21.497Z,95426.72
2022-11-14T02:29:09.920Z,95443.59
2022-11-14T02:31:55.433Z,95439.28
2022-11-14T02:34:41.464Z,95430.72
2022-11-14T02:37:27.444Z,95424.81
2022-11-14T02:40:12.998Z,95414.38
2022-11-14T02:42:59.032Z,95418.94
2022-11-14T02:45:44.951Z,95406.59
2022-11-14T02:48:30.878Z,95397.75
2022-11-14T02:51:16.648Z,95400.69
2022-11-14T02:54:02.672Z,95407.13
2022-11-14T02:56:48.449Z,95408.47
2022-11-14T02:59:34.108Z,95399.09
2022-11-14T03:02:19.662Z,95391.31
2022-11-14T03:05:05.817Z,95397.75
2022-11-14T03:07:55.460Z,95399.88
2022-11-14T03:10:41.375Z,95400.16
2022-11-14T03:13:29.534Z,95399.34
2022-11-14T03:16:15.329Z,95395.84
2022-11-14T03:19:00.952Z,95421.88
2022-11-14T03:21:46.908Z,95414.34
2022-11-14T03:24:32.414Z,95409.25
2022-11-14T03:27:18.882Z,95415.16
2022-11-14T03:30:04.956Z,95413.78
2022-11-14T03:32:50.319Z,95414.34
2022-11-14T03:35:36.128Z,95418.34
2022-11-14T03:38:22.168Z,95417.81
2022-11-14T03:41:08.414Z,95425.31
2022-11-14T03:43:54.424Z,95427.44
2022-11-14T03:46:39.897Z,95414.31
2022-11-14T03:49:25.369Z,95408.97
2022-11-14T03:52:12.243Z,95414.59
2022-11-14T03:54:57.673Z,95425.81
2022-11-14T03:57:43.602Z,95433.59
2022-11-14T04:00:29.325Z,95431.19
2022-11-14T04:03:15.220Z,95432.25
2022-11-14T04:06:00.778Z,95424.47
2022-11-14T04:08:47.171Z,95420.72
2022-11-14T04:11:33.290Z,95408.94
2022-11-14T04:14:19.053Z,95412.97
2022-11-14T04:17:04.463Z,95416.19
2022-11-14T04:19:49.853Z,95414.06
2022-11-14T04:22:35.373Z,95413.25
2022-11-14T04:25:20.809Z,95405.50
2022-11-14T04:28:06.480Z,95408.69
2022-11-14T04:30:51.997Z,95404.97
2022-11-14T04:33:37.417Z,95404.97
2022-11-14T04:36:22.923Z,95402.28
2022-11-14T04:39:08.332Z,95399.59
2022-11-14T04:41:54.175Z,95391.81
2022-11-14T04:44:39.754Z,95400.13
2022-11-14T04:47:25.551Z,95411.09
2022-11-14T04:50:11.161Z,95417.53
2022-11-14T04:52:57.250Z,95413.53
2022-11-14T04:55:44.522Z,95410.28
2022-11-14T04:58:30.556Z,95402.81
2022-11-14T05:01:16.409Z,95398.50
2022-11-14T05:04:02.391Z,95386.16
2022-11-14T05:06:48.076Z,95384.00
2022-11-14T05:09:33.630Z,95387.22
2022-11-14T05:12:19.079Z,95398.47
2022-11-14T05:15:04.717Z,95399.00
2022-11-14T05:17:50.431Z,95390.41
2022-11-14T05:20:35.880Z,95377.81
2022-11-14T05:23:23.979Z,95386.13
2022-11-14T05:26:12.014Z,95384.53
2022-11-14T05:28:57.484Z,95389.88
2022-11-14T05:31:43.204Z,95384.78
2022-11-14T05:34:29.045Z,95405.41
2022-11-14T05:37:14.773Z,95416.38
2022-11-14T05:40:00.772Z,95430.03
2022-11-14T05:42:46.743Z,95432.16
2022-11-14T05:45:32.950Z,95438.56
2022-11-14T05:48:18.535Z,95441.25
2022-11-14T05:51:05.604Z,95438.03
2022-11-14T05:53:51.167Z,95425.75
2022-11-14T05:56:36.927Z,95425.75
2022-11-14T05:59:22.319Z,95428.69
2022-11-14T06:02:08.375Z,95449.28
2022-11-14T06:04:54.008Z,95441.25
2022-11-14T06:07:39.839Z,95442.31
2022-11-14T06:10:25.661Z,95442.31
2022-11-14T06:13:11.293Z,95450.63
2022-11-14T06:16:01.580Z,95456.78
2022-11-14T06:18:48.134Z,95459.44
2022-11-14T06:21:33.773Z,95464.00
2022-11-14T06:24:19.209Z,95454.88
2022-11-14T06:27:04.770Z,95455.47
2022-11-14T06:29:50.237Z,95458.66
2022-11-14T06:32:36.133Z,95459.75
2022-11-14T06:35:21.768Z,95457.38
2022-11-14T06:38:07.279Z,95452.03
2022-11-14T06:40:53.443Z,95451.25
2022-11-14T06:43:41.254Z,95455.53
2022-11-14T06:46:27.033Z,95457.44
2022-11-14T06:49:12.640Z,95474.31
2022-11-14T06:51:58.126Z,95457.44
2022-11-14T06:54:43.591Z,95451.56
2022-11-14T06:57:28.982Z,95449.97
2022-11-14T07:00:15.008Z,95446.50
2022-11-14T07:03:00.568Z,95448.09
2022-11-14T07:05:46.580Z,95450.00
2022-11-14T07:08:33.697Z,95444.09
2022-11-14T07:11:22.047Z,95448.13
2022-11-14T07:14:09.354Z,95459.66
2022-11-14T07:16:55.035Z,95452.16
2022-11-14T07:19:40.600Z,95444.66
2022-11-14T07:22:26.105Z,95443.84
2022-11-14T07:25:12.151Z,95455.38
2022-11-14T07:27:58.582Z,95449.75
2022-11-14T07:30:44.434Z,95459.41
2022-11-14T07:33:30.742Z,95473.31
2022-11-14T07:36:16.782Z,95457.53
2022-11-14T07:39:03.265Z,95455.66
2022-11-14T07:41:48.953Z,95458.34
2022-11-14T07:44:34.655Z,95450.56
2022-11-14T07:47:20.010Z,95445.72
2022-11-14T07:50:05.835Z,95447.88
2022-11-14T07:52:55.482Z,95447.34
2022-11-14T07:55:41.191Z,95435.03
2022-11-14T07:58:27.079Z,95430.19
2022-11-14T08:01:14.418Z,95424.28
2022-11-14T08:04:00.401Z,95410.63
2022-11-14T08:06:46.082Z,95415.44
2022-11-14T08:09:32.096Z,95422.16
2022-11-14T08:12:17.623Z,95422.69
2022-11-14T08:15:03.551Z,95426.72
2022-11-14T08:17:49.011Z,95427.78
2022-11-14T08:20:34.941Z,95428.03
2022-11-14T08:23:20.544Z,95420.81
2022-11-14T08:26:06.713Z,95422.13
2022-11-14T08:28:53.755Z,95424.81
2022-11-14T08:31:39.463Z,95434.47
2022-11-14T08:34:25.963Z,95422.66
2022-11-14T08:37:11.521Z,95418.88
2022-11-14T08:39:57.419Z,95419.13
2022-11-14T08:42:43.203Z,95405.41
2022-11-14T08:45:29.831Z,95400.28
2022-11-14T08:48:15.967Z,95391.94
2022-11-14T08:51:04.515Z,95392.97
2022-11-14T08:53:50.153Z,95395.38
2022-11-14T08:56:35.916Z,95399.09
2022-11-14T08:59:21.321Z,95396.91
2022-11-14T09:02:07.190Z,95383.69
2022-11-14T09:04:52.691Z,95382.03
2022-11-14T09:07:38.433Z,95380.66
2022-11-14T09:10:25.556Z,95380.84
2022-11-14T09:13:11.144Z,95389.38
2022-11-14T09:15:57.049Z,95385.53
2022-11-14T09:18:43.092Z,95390.25
2022-11-14T09:21:28.733Z,95394.47
2022-11-14T09:24:14.790Z,95398.66
2022-11-14T09:27:00.782Z,95395.50
2022-11-14T09:29:46.687Z,95394.50
2022-11-14T09:32:32.532Z,95400.22
2022-11-14T09:35:18.279Z,95399.47
2022-11-14T09:38:09.616Z,95397.59
2022-11-14T09:41:26.601Z,95400.03
2022-11-14T09:44:37.317Z,95409.53
2022-11-14T09:47:33.214Z,95403.09
2022-11-14T09:50:26.144Z,95399.97
2022-11-14T09:53:44.176Z,95403.00
2022-11-14T09:56:29.922Z,95392.06
2022-11-14T09:59:16.405Z,95390.81
2022-11-14T10:02:28.901Z,95398.22
2022-11-14T10:05:33.522Z,95395.03
2022-11-14T10:08:32.916Z,95391.59
2022-11-14T10:11:47.209Z,95387.81
2022-11-14T10:14:41.845Z,95381.66
2022-11-14T10:17:54.875Z,95370.53
2022-11-14T10:21:00.422Z,95371.31
2022-11-14T10:24:15.565Z,95377.50
2022-11-14T10:27:07.584Z,95385.78
2022-11-14T10:30:16.280Z,95385.66
2022-11-14T10:33:17.136Z,95393.63
2022-11-14T10:36:25.367Z,95392.19
2022-11-14T10:39:29.229Z,95391.50
2022-11-14T10:42:22.943Z,95390.97
2022-11-14T10:45:29.681Z,95392.00
2022-11-14T10:48:30.512Z,95387.13
2022-11-14T10:51:34.966Z,95398.19
2022-11-14T10:54:35.570Z,95390.59
2022-11-14T10:57:22.739Z,95399.13
2022-11-14T11:00:17.852Z,95399.19
2022-11-14T11:03:03.766Z,95405.28
2022-11-14T11:05:52.009Z,95393.97
2022-11-14T11:08:44.638Z,95390.81
2022-11-14T11:11:31.022Z,95387.63
2022-11-14T11:14:19.424Z,95395.63
2022-11-14T11:17:11.010Z,95402.03
2022-11-14T11:20:35.158Z,95404.56
2022-11-14T11:23:27.130Z,95409.06
2022-11-14T11:26:27.680Z,95408.44
2022-11-14T11:29:13.413Z,95405.75
2022-11-14T11:31:59.640Z,95406.06
2022-11-14T11:34:45.686Z,95404.63
2022-11-14T11:37:37.358Z,95412.47
2022-11-14T11:40:28.497Z,95414.41
2022-11-14T11:43:40.538Z,95417.75
2022-11-14T11:46:47.001Z,95410.41
2022-11-14T11:49:51.759Z,95408.34
2022-11-14T11:52:53.086Z,95407.06
2022-11-14T11:55:46.228Z,95417.31
2022-11-14T11:58:43.137Z,95409.78
2022-11-14T12:01:29.475Z,95411.84
2022-11-14T12:04:14.944Z,95424.31
2022-11-14T12:07:09.741Z,95419.97
2022-11-14T12:10:10.216Z,95430.03
2022-11-14T12:13:33.866Z,95438.19
2022-11-14T12:16:32.078Z,95437.41
2022-11-14T12:19:39.196Z,95437.53
2022-11-14T12:22:54.270Z,95442.00
2022-11-14T12:26:28.611Z,95447.94
2022-11-14T12:29:29.180Z,95456.25
2022-11-14T12:32:22.993Z,95457.41
2022-11-14T12:35:18.257Z,95467.00
2022-11-14T12:38:13.214Z,95467.78
2022-11-14T12:41:01.828Z,95462.84
2022-11-14T12:43:47.600Z,95470.38
2022-11-14T12:47:05.581Z,95470.50
2022-11-14T12:49:53.703Z,95477.56
2022-11-14T12:52:46.453Z,95479.47
2022-11-14T12:55:32.121Z,95472.59
2022-11-14T12:58:44.587Z,95475.31
2022-11-14T13:01:30.461Z,95486.03
2022-11-14T13:04:26.109Z,95480.94
2022-11-14T13:07:51.146Z,95484.28
2022-11-14T13:10:39.628Z,95487.31
2022-11-14T13:13:25.904Z,95493.53
2022-11-14T13:16:30.879Z,95501.53
2022-11-14T13:19:21.747Z,95498.81
2022-11-14T13:22:10.824Z,95488.75
2022-11-14T13:24:59.653Z,95489.06
2022-11-14T13:28:06.536Z,95486.34
2022-11-14T13:31:16.214Z,95485.25
2022-11-14T13:34:27.697Z,95473.22
2022-11-14T13:37:22.765Z,95484.41
2022-11-14T13:40:15.028Z,95482.53
2022-11-14T13:43:26.788Z,95485.88
2022-11-14T13:46:24.845Z,95487.81
2022-11-14T13:49:39.341Z,95485.56
2022-11-14T13:52:32.359Z,95491.16
2022-11-14T13:55:27.998Z,95490.50
2022-11-14T13:58:39.497Z,95492.75
2022-11-14T14:01:38.843Z,95495.47
2022-11-14T14:04:39.215Z,95488.75
2022-11-14T14:07:55.616Z,95488.91
2022-11-14T14:10:57.618Z,95488.44
2022-11-14T14:13:58.865Z,95478.69
2022-11-14T14:17:19.734Z,95481.34
2022-11-14T14:20:32.089Z,95482.63
2022-11-14T14:23:44.374Z,95469.50
2022-11-14T14:26:44.454Z,95474.00
2022-11-14T14:30:03.694Z,95471.44
2022-11-14T14:33:07.497Z,95475.88
2022-11-14T14:35:54.215Z,95469.16
2022-11-14T14:38:39.630Z,95491.03
2022-11-14T14:41:30.951Z,95488.47
2022-11-14T14:44:26.647Z,95481.28
2022-11-14T14:47:40.086Z,95483.31
2022-11-14T14:50:39.689Z,95469.13
2022-11-14T14:53:28.796Z,95467.03
2022-11-14T14:56:23.340Z,95475.63
2022-11-14T14:59:37.759Z,95473.19
2022-11-14T15:02:25.654Z,95474.94
2022-11-14T15:05:11.801Z,95481.25
2022-11-14T15:08:00.557Z,95482.06
2022-11-14T15:10:46.470Z,95480.63
2022-11-14T15:13:32.919Z,95481.06
2022-11-14T15:16:20.040Z,95477.19
2022-11-14T15:19:06.023Z,95479.53
2022-11-14T15:22:02.655Z,95488.44
2022-11-14T15:25:27.456Z,95483.56
2022-11-14T15:28:22.509Z,95482.41
2022-11-14T15:31:17.399Z,95482.03
2022-11-14T15:34:21.362Z,95495.19
2022-11-14T15:37:10.583Z,95492.88
2022-11-14T15:40:16.420Z,95493.16
2022-11-14T15:43:40.286Z,95493.88
2022-11-14T15:46:39.968Z,95495.72
2022-11-14T15:49:27.132Z,95492.59
2022-11-14T15:52:22.970Z,95499.88
2022-11-14T15:55:20.628Z,95496.28
2022-11-14T15:58:27.909Z,95496.47
2022-11-14T16:01:24.439Z,95499.91
2022-11-14T16:04:17.534Z,95503.31
2022-11-14T16:07:03.761Z,95502.59
2022-11-14T16:09:50.048Z,95493.63
2022-11-14T16:12:35.537Z,95492.91
2022-11-14T16:15:21.541Z,95500.34
2022-11-14T16:18:07.098Z,95489.09
2022-11-14T16:20:52.747Z,95498.69
2022-11-14T16:23:38.931Z,95492.91
2022-11-14T16:26:24.733Z,95494.09
2022-11-14T16:29:10.298Z,95491.78
2022-11-14T16:31:56.108Z,95492.97
2022-11-14T16:34:42.138Z,95493.88
2022-11-14T16:37:27.574Z,95497.47
2022-11-14T16:40:16.255Z,95494.03
2022-11-14T16:43:02.122Z,95493.03
2022-11-14T16:45:47.800Z,95497.41
2022-11-14T16:48:33.911Z,95492.59
2022-11-14T16:51:46.738Z,95499.13
2022-11-14T16:54:25.160Z,95498.88
2022-11-14T16:57:10.535Z,95501.84
2022-11-14T16:59:56.361Z,95491.34
2022-11-14T17:02:42.200Z,95496.53
2022-11-14T17:05:27.638Z,95493.84
2022-11-14T17:08:13.196Z,95498.75
2022-11-14T17:10:58.662Z,95488.53
2022-11-14T17:13:44.549Z,95489.63
2022-11-14T17:16:30.056Z,95495.31
2022-11-14T17:19:15.991Z,95492.13
2022-11-14T17:22:02.025Z,95493.50
2022-11-14T17:24:47.718Z,95493.50
2022-11-14T17:27:34.090Z,95491.09
2022-11-14T17:30:20.085Z,95495.69
2022-11-14T17:33:06.213Z,95491.38
2022-11-14T17:35:52.134Z,95483.28
2022-11-14T17:38:38.407Z,95487.88
2022-11-14T17:41:24.947Z,95485.47
2022-11-14T17:44:10.697Z,95484.69
2022-11-14T17:46:56.304Z,95476.88
2022-11-14T17:49:41.799Z,95476.34
2022-11-14T17:52:27.478Z,95479.06
2022-11-14T17:55:12.993Z,95477.47
2022-11-14T17:57:58.434Z,95473.16
2022-11-14T18:00:44.115Z,95479.66
2022-11-14T18:03:29.588Z,95482.66
2022-11-14T18:06:19.583Z,95486.16
2022-11-14T18:09:05.299Z,95485.66
2022-11-14T18:11:51.102Z,95497.25
2022-11-14T18:14:36.552Z,95507.25
2022-11-14T18:17:22.216Z,95503.72
2022-11-14T18:20:08.635Z,95504.56
2022-11-14T18:22:54.362Z,95497.84
2022-11-14T18:25:39.824Z,95499.75
2022-11-14T18:28:25.993Z,95494.94
2022-11-14T18:31:11.987Z,95498.22
2022-11-14T18:33:58.112Z,95493.41
2022-11-14T18:36:43.730Z,95497.75
2022-11-14T18:39:29.215Z,95488.66
2022-11-14T18:42:15.098Z,95488.13
2022-11-14T18:45:01.137Z,95482.53
2022-11-14T18:47:46.559Z,95482.03
2022-11-14T18:50:32.357Z,95473.91
2022-11-14T18:53:18.305Z,95472.31
2022-11-14T18:56:05.272Z,95475.50
2022-11-14T18:58:56.913Z,95466.31
2022-11-14T19:01:43.409Z,95470.84
2022-11-14T19:04:28.963Z,95470.25
2022-11-14T19:07:14.417Z,95483.19
2022-11-14T19:10:00.357Z,95480.97
2022-11-14T19:12:48.897Z,95478.78
2022-11-14T19:15:34.880Z,95481.47
2022-11-14T19:18:20.257Z,95480.41
2022-11-14T19:21:05.953Z,95475.78
2022-11-14T19:23:51.815Z,95479.91
2022-11-14T19:26:37.493Z,95480.97
2022-11-14T19:29:23.182Z,95483.19
2022-11-14T19:32:09.152Z,95485.38
2022-11-14T19:34:54.784Z,95481.34
2022-11-14T19:37:40.216Z,95490.53
2022-11-14T19:40:25.658Z,95490.31
2022-11-14T19:43:11.428Z,95495.22
2022-11-14T19:46:01.474Z,95491.78
2022-11-14T19:48:47.741Z,95489.66
2022-11-14T19:51:33.678Z,95479.75
2022-11-14T19:54:19.153Z,95480.59
2022-11-14T19:57:04.625Z,95487.41
2022-11-14T19:59:50.328Z,95480.97
2022-11-14T20:02:36.003Z,95471.88
2022-11-14T20:05:21.576Z,95479.72
2022-11-14T20:08:07.068Z,95475.72
2022-11-14T20:10:59.514Z,95480.09
2022-11-14T20:13:45.335Z,95481.50
2022-11-14T20:16:36.037Z,95480.16
2022-11-14T20:19:21.638Z,95481.81
2022-11-14T20:22:07.439Z,95481.31
2022-11-14T20:24:53.157Z,95478.41
2022-11-14T20:27:38.694Z,95480.88
2022-11-14T20:30:24.216Z,95476.34
2022-11-14T20:33:10.699Z,95472.31
2022-11-14T20:36:01.382Z,95477.50
2022-11-14T20:38:47.544Z,95469.19
2022-11-14T20:41:33.042Z,95467.84
2022-11-14T20:44:18.746Z,95470.84
2022-11-14T20:47:08.485Z,95470.63
2022-11-14T20:49:56.697Z,95463.91
2022-11-14T20:52:44.700Z,95464.47
2022-11-14T20:55:30.460Z,95463.19
2022-11-14T20:58:16.011Z,95459.16
2022-11-14T21:01:01.967Z,95466.72
2022-11-14T21:03:48.623Z,95465.41
2022-11-14T21:06:34.273Z,95464.06
2022-11-14T21:09:19.674Z,95455.75
2022-11-14T21:12:05.155Z,95465.75
2022-11-14T21:14:50.857Z,95455.25
2022-11-14T21:17:36.493Z,95458.22
2022-11-14T21:20:21.954Z,95448.03
2022-11-14T21:23:07.619Z,95449.09
2022-11-14T21:26:01.237Z,95448.59
2022-11-14T21:28:49.492Z,95459.38
2022-11-14T21:31:41.843Z,95457.75
2022-11-14T21:34:27.520Z,95433.78
2022-11-14T21:37:13.444Z,95448.38
2022-11-14T21:39:59.275Z,95446.75
2022-11-14T21:42:44.759Z,95445.97
2022-11-14T21:45:30.883Z,95441.13
2022-11-14T21:48:16.411Z,95438.44
2022-11-14T21:51:22.402Z,95437.94
2022-11-14T21:54:09.540Z,95431.72
2022-11-14T21:56:54.944Z,95439.53
2022-11-14T21:59:40.440Z,95441.94
2022-11-14T22:02:25.856Z,95435.19
2022-11-14T22:05:11.141Z,95440.78
2022-11-14T22:07:56.777Z,95435.34
2022-11-14T22:10:42.714Z,95430.22
2022-11-14T22:13:30.135Z,95432.00
2022-11-14T22:16:16.158Z,95432.25
2022-11-14T22:19:05.232Z,95429.78
2022-11-14T22:21:51.199Z,95430.50
2022-11-14T22:24:36.984Z,95429.66
2022-11-14T22:27:22.550Z,95421.00
2022-11-14T22:30:08.897Z,95423.94
2022-11-14T22:32:54.566Z,95428.47
2022-11-14T22:35:40.093Z,95421.66
2022-11-14T22:38:28.683Z,95414.91
2022-11-14T22:41:25.297Z,95420.81
2022-11-14T22:44:14.598Z,95418.63
2022-11-14T22:47:00.148Z,95421.84
2022-11-14T22:49:46.060Z,95422.63
2022-11-14T22:52:31.821Z,95419.94
2022-11-14T22:55:18.363Z,95420.72
2022-11-14T22:58:04.206Z,95430.44
2022-11-14T23:00:50.735Z,95426.94
2022-11-14T23:03:36.697Z,95420.22
2022-11-14T23:06:23.969Z,95417.81
2022-11-14T23:09:09.776Z,95420.00
2022-11-14T23:11:55.177Z,95419.19
2022-11-14T23:14:40.599Z,95420.59
2022-11-14T23:17:26.001Z,95411.97
2022-11-14T23:20:16.277Z,95416.06
2022-11-14T23:23:03.249Z,95416.94
2022-11-14T23:25:48.961Z,95407.81
2022-11-14T23:28:35.179Z,95414.06
2022-11-14T23:31:21.247Z,95413.84
2022-11-14T23:34:06.934Z,95405.03
2022-11-14T23:36:52.676Z,95403.19
2022-11-14T23:39:38.150Z,95398.66
2022-11-14T23:42:23.522Z,95399.53
2022-11-14T23:45:09.376Z,95396.91
2022-11-14T23:47:55.106Z,95402.84
2022-11-14T23:50:40.785Z,95397.22
2022-11-14T23:53:26.572Z,95397.53
2022-11-14T23:56:13.646Z,95398.09
2022-11-14T23:58:59.066Z,95400.78
